AirNav  
 
 1037 users online  

1C5 Bolingbrook's Clow International Airport
Bolingbrook, Illinois, USA

GOING TO BOLINGBROOK?


FAA INFORMATION EFFECTIVE 09 NOVEMBER 2017

Location

FAA Identifier: 1C5
Lat/Long: 41-41-45.3000N / 088-07-46.2000W
41-41.755000N / 088-07.770000W
41.6959167 / -88.1295000
(estimated)
Elevation: 674.9 ft. / 206 m (estimated)
Variation: 04W (2020)
Time zone: UTC -6 (UTC -5 during Daylight Saving Time)
Zip code: 60490

Airport Operations

Airport use: Open to the public
Activation date: 03/1967
Control tower: no
ARTCC: CHICAGO CENTER
FSS: KANKAKEE FLIGHT SERVICE STATION
NOTAMs facility: IKK (NOTAM-D service available)
Attendance: 0700-1800
Pattern altitude: 1504.9 ft. MSL
Wind indicator: lighted
Segmented circle: no
Lights: MIRL RY 18/36 PRESET LOW INTST DUSK-DAWN TO INCR INTST - CTAF
Beacon: white-green (lighted land airport)
Operates sunset to sunrise.

Airport Communications

CTAF: 122.9
CHICAGO APPROACH: 119.35
CHICAGO DEPARTURE: 119.35
IC: 119.35
WX AWOS-3 at LOT (5 nm S): 118.525 (815-588-4802)
WX AWOS-3 at JOT (11 nm S): 119.975 (815-730-9560)
WX ASOS at DPA (14 nm NW): PHONE 630-584-2728
WX ASOS at ARR (16 nm W): PHONE 630-466-5622
WX AWOS-3 at 06C (18 nm N): 128.275 ((847) 895-2887)
WX ASOS at MDW (18 nm E): PHONE 773-884-4424
WX ASOS at ORD (20 nm NE): PHONE 773-462-0118

Nearby radio navigation aids

VOR radial/distance  VOR name  Freq  Var
JOTr041/12.3JOLIET VORTAC112.3002E
DPAr138/15.3DUPAGE VOR/DME108.4002E
ORDr208/20.2CHICAGO O'HARE VOR/DME113.9002E
CGTr292/27.4CHICAGO HEIGHTS VORTAC114.2002E
EONr327/29.8PEOTONE VORTAC113.2002E
OBKr196/32.5NORTHBROOK VOR/DME113.0002W
IKKr341/39.4KANKAKEE VOR/DME111.6000E

Airport Services

Fuel available: 100LL JET-A
Parking: hangars and tiedowns
Airframe service: MAJOR
Powerplant service: MAJOR
Bottled oxygen: NONE
Bulk oxygen: NONE

Runway Information

Runway 18/36

Dimensions: 3360 x 75 ft. / 1024 x 23 m
Surface: asphalt, in good condition
Weight bearing capacity: 
Single wheel: 12.5
Runway edge lights: medium intensity
RUNWAY 18  RUNWAY 36
Latitude: 41-42.031245N41-41.478230N
Longitude: 088-07.779947W088-07.758665W
Elevation: 674.9 ft.657.0 ft.
Traffic pattern: leftleft
Runway heading: 182 magnetic, 178 true002 magnetic, 358 true
Markings: nonprecision, in good conditionnonprecision, in good condition
Touchdown point: yes, no lightsyes, no lights
Obstructions: 34 ft. tree, 694 ft. from runway, 90 ft. left of centerline, 14:1 slope to clearnone

Airport Ownership and Management from official FAA records

Ownership: Publicly-owned
Owner: VILLAGE OF BOLINGBROOK
375 W BRIARCLIFF ROAD
BOLINGBROOK, IL 60440
Phone 630-226-8400
Manager: JOSEPH DE PAULO
130 S CLOW INTL PARKWAY
BOLINGBROOK, IL 60490
Phone 630-378-0479

Airport Operational Statistics

Aircraft based on the field: 90
Single engine airplanes: 75
Multi engine airplanes: 9
Helicopters: 1
Ultralights: 5
    
Aircraft operations: avg 137/day *
52% local general aviation
44% transient general aviation
4% air taxi
* for 12-month period ending 31 August 2017

Additional Remarks

TWY ONLY 20 FT WIDE. LARGE ARCT CONSIDER BACK-TAXI.
NO TGL, ALL FULL STOP LDGS.
FOR CD CTC CHICAGO APCH AT 847-289-0926.
FBO UNICOM 123.50

Instrument Procedures

NOTE: All procedures below are presented as PDF files. If you need a reader for these files, you should download the free Adobe Reader.

NOT FOR NAVIGATION. Please procure official charts for flight.
FAA instrument procedures published for use between 9 November 2017 at 0901Z and 7 December 2017 at 0900Z.

 
IAPs - Instrument Approach Procedures
RNAV (GPS)-B   download (161KB)
VOR-A   download (169KB)
NOTE: Special Take-Off Minimums/Departure Procedures apply   download (369KB)

Other nearby airports with instrument procedures:

KLOT - Lewis University Airport (5 nm S)
KDPA - DuPage Airport (14 nm NW)
KARR - Aurora Municipal Airport (16 nm W)
KMDW - Chicago Midway International Airport (18 nm E)
KORD - Chicago O'Hare International Airport (20 nm NE)
 
Loc | Ops | Rwys | IFR | FBO | Links
Com | Nav | Svcs | Stats | Notes


 
Area around 1C5 (Bolingbrook's Clow International Airport)
 
Road maps at: MapQuest Bing Google
 
Aerial photo
WARNING: Photo may not be current or correct
Aerial photo of 1C5 (Bolingbrook's Clow International Airport)
Photo courtesy of Sean

Do you have a better or more recent aerial photo of Bolingbrook's Clow International Airport that you would like to share? If so, please send us your photo.

 
Sectional chart

 
Airport distance calculator
Flying to Bolingbrook's Clow International Airport? Find the distance to fly.

From to 1C5

Sunrise and sunset
Times for 18-Nov-2017
 Local
(UTC-6)
 Zulu
(UTC)
Morning civil twilight06:1612:16
Sunrise06:4612:46
Sunset16:2922:29
Evening civil twilight16:5922:59

Current date and time
Zulu (UTC)  18-Nov-2017 16:09:26
Local (UTC-6)  18-Nov-2017 10:09:26
 
METAR
KLOT 
5nm S 
181555Z AUTO 01017G22KT 3SM +RA OVC010 05/04 A2946 RMK AO2 LTG DSNT SE AND S T00460037
KJOT 
11nm S 
181555Z AUTO 01012G17KT 5SM +VCTSRA OVC010 06/05 A2945 RMK AO2 LTG DSNT E AND SE P0017 T00560050
KDPA 
14nm N 
181552Z 36018G24KT 2SM RA BR BKN009 OVC013 03/03 A2948 RMK AO2 SLP987 P0005 T00330028
KARR 
16nm W 
181552Z 36016G26KT 3SM -RA BR OVC009 04/03 A2949 RMK AO2 PK WND 01026/1546 SLP989 P0010 T00440028
KMDW 
18nm E 
181553Z 01016G21KT 5SM -RA BR OVC011 06/05 A2946 RMK AO2 PK WND 02028/1527 LTG DSNT SE SLP981 P0006 T00610050
KORD 
19nm NE 
181551Z 35015G28KT 4SM -RA BR OVC010 05/03 A2947 RMK AO2 PK WND 36028/1548 SLP981 P0003 T00500028
TAF
KDPA 
14nm N 
181132Z 1812/1912 01012G18KT 5SM -SHRA BR OVC006 FM181500 36016G27KT 2SM RA BR BKN006 OVC012 FM182000 34019G30KT 5SM -RA BKN015 OVC025 FM182200 33018G28KT P6SM BKN025 FM190500 32013G20KT P6SM SCT025
KMDW 
18nm E 
181318Z 1813/1912 02012G20KT 5SM -SHRA BR OVC006 TEMPO 1813/1815 1 1/2SM RA BR FM181500 36016G27KT 2SM RA BR BKN006 OVC012 FM182000 34019G30KT 5SM -RA BKN015 OVC025 FM182200 33018G28KT P6SM BKN025 FM190600 32013G20KT P6SM SCT025
KORD 
19nm NE 
181132Z 1812/1918 01012G18KT 6SM -SHRA BR OVC006 FM181500 36016G27KT 2SM RA BR BKN006 OVC012 FM182000 34019G30KT 5SM -RA BKN015 OVC025 FM182200 33018G28KT P6SM BKN025 FM190600 32013G20KT P6SM SCT025 FM191200 30012KT P6SM SCT150
NOTAMs
Click for the latest NOTAMs
NOTAMs are issued by the DoD/FAA and will open in a separate window not controlled by AirNav.

 

 
 

FBO, Fuel Providers, and Aircraft Ground Support

  
 Business Name 
 
 Contact 
 
 Services / Description 
 
Fuel Prices
 
Comments
  
A&M Aviation, Inc. 630-759-1555
[web site]
[email]
Aviation fuel, Aircraft parking (ramp or tiedown), Hangars, Passenger terminal and lounge, Flight training, Aircraft rental, Aerial tours / aerial sightseeing, ...
 
Courtesy car   Cessna Pilot Center   Wireless Internet Access (WiFi)  
 
More info about A&M Aviation, Inc.
Phillips 66
100LL Jet A
FS $4.64 $3.49 
 Updated 15-Nov-2017
  no comments
FS=Full service
Update Fuel Prices
 

Where to Eat: Catering, Restaurants, Food shops

  
 Business Name 
 
 Contact 
 
 Services / Description 
 
Distance
 
Comments
  
Charlie's at 1C5 630-771-0501
no information available

If you are affiliated with Charlie's at 1C5 and would like to show here your services, contact info, web link, logo, and more, click here
on airport  
   2 read write
 

Would you like to see your business listed on this page?

 If your business provides an interesting product or service to pilots, flight crews, aircraft, or users of the Bolingbrook's Clow International Airport, you should consider listing it here.  To start the listing process, click on the button below
 
Add a business
 

Other Pages about Bolingbrook's Clow International Airport

www.clowairport.com
www.cyberair.com/...
 
Update a link
 
Copyright © AirNav, LLC. All rights reserved. Privacy Policy  Contact